createdAt,value
2023-05-18T00:00:58.513Z,93139.00
2023-05-18T00:01:58.502Z,93141.00
2023-05-18T00:02:58.606Z,93143.00
2023-05-18T00:03:58.635Z,93139.00
2023-05-18T00:04:58.566Z,93141.00
2023-05-18T00:05:58.576Z,93141.00
2023-05-18T00:06:58.608Z,93143.00
2023-05-18T00:07:58.621Z,93143.00
2023-05-18T00:08:58.668Z,93143.00
2023-05-18T00:09:58.730Z,93143.00
2023-05-18T00:10:58.689Z,93143.00
2023-05-18T00:11:58.703Z,93143.00
2023-05-18T00:12:58.723Z,93141.00
2023-05-18T00:13:58.723Z,93141.00
2023-05-18T00:14:58.735Z,93139.00
2023-05-18T00:15:58.750Z,93141.00
2023-05-18T00:16:58.813Z,93139.00
2023-05-18T00:17:58.827Z,93137.00
2023-05-18T00:18:58.748Z,93139.00
2023-05-18T00:19:58.746Z,93139.00
2023-05-18T00:20:58.807Z,93139.00
2023-05-18T00:21:58.750Z,93139.00
2023-05-18T00:22:58.756Z,93137.00
2023-05-18T00:23:58.762Z,93137.00
2023-05-18T00:24:58.767Z,93137.00
2023-05-18T00:25:58.782Z,93135.00
2023-05-18T00:26:58.781Z,93135.00
2023-05-18T00:27:58.779Z,93135.00
2023-05-18T00:28:58.802Z,93135.00
2023-05-18T00:29:58.817Z,93135.00
2023-05-18T00:30:58.808Z,93133.00
2023-05-18T00:31:58.922Z,93133.00
2023-05-18T00:32:58.925Z,93133.00
2023-05-18T00:33:58.842Z,93135.00
2023-05-18T00:34:58.830Z,93133.00
2023-05-18T00:35:58.841Z,93129.00
2023-05-18T00:36:58.856Z,93129.00
2023-05-18T00:37:58.864Z,93127.00
2023-05-18T00:38:58.877Z,93127.00
2023-05-18T00:39:58.878Z,93127.00
2023-05-18T00:40:58.888Z,93127.00
2023-05-18T00:41:58.920Z,93124.00
2023-05-18T00:42:58.906Z,93124.00
2023-05-18T00:43:58.929Z,93127.00
2023-05-18T00:44:58.929Z,93126.00
2023-05-18T00:45:58.998Z,93126.00
2023-05-18T00:46:58.944Z,93126.00
2023-05-18T00:47:59.028Z,93124.00
2023-05-18T00:48:58.967Z,93124.00
2023-05-18T00:49:58.984Z,93126.00
2023-05-18T00:50:59.031Z,93124.00
2023-05-18T00:51:59.027Z,93120.00
2023-05-18T00:52:59.044Z,93120.00
2023-05-18T00:53:59.070Z,93120.00
2023-05-18T00:54:59.101Z,93122.00
2023-05-18T00:55:59.113Z,93120.00
2023-05-18T00:56:59.129Z,93120.00
2023-05-18T00:57:59.150Z,93118.00
2023-05-18T00:58:59.170Z,93120.00
2023-05-18T00:59:59.207Z,93118.00
2023-05-18T01:00:59.244Z,93116.00
2023-05-18T01:01:59.275Z,93116.00
2023-05-18T01:02:59.341Z,93116.00
2023-05-18T01:03:59.284Z,93118.00
2023-05-18T01:04:59.313Z,93116.00
2023-05-18T01:05:59.339Z,93114.00
2023-05-18T01:06:59.356Z,93112.00
2023-05-18T01:07:59.407Z,93112.00
2023-05-18T01:08:59.410Z,93110.00
2023-05-18T01:09:59.442Z,93112.00
2023-05-18T01:10:59.477Z,93110.00
2023-05-18T01:11:59.489Z,93110.00
2023-05-18T01:12:59.523Z,93110.00
2023-05-18T01:13:59.544Z,93110.00
2023-05-18T01:14:59.569Z,93110.00
2023-05-18T01:15:59.585Z,93108.00
2023-05-18T01:16:59.639Z,93108.00
2023-05-18T01:17:59.652Z,93106.00
2023-05-18T01:18:59.668Z,93106.00
2023-05-18T01:19:59.681Z,93104.00
2023-05-18T01:20:59.716Z,93096.00
2023-05-18T01:21:59.723Z,93104.00
2023-05-18T01:22:59.741Z,93104.00
2023-05-18T01:23:59.775Z,93104.00
2023-05-18T01:24:59.786Z,93104.00
2023-05-18T01:25:59.803Z,93104.00
2023-05-18T01:26:59.831Z,93104.00
2023-05-18T01:27:59.858Z,93096.00
2023-05-18T01:28:59.870Z,93094.00
2023-05-18T01:29:59.891Z,93096.00
2023-05-18T01:30:59.944Z,93096.00
2023-05-18T01:31:59.909Z,93094.00
2023-05-18T01:32:59.982Z,93094.00
2023-05-18T01:33:59.945Z,93092.00
2023-05-18T01:34:59.972Z,93094.00
2023-05-18T01:36:00.034Z,93092.00
2023-05-18T01:37:00.002Z,93092.00
2023-05-18T01:38:00.050Z,93092.00
2023-05-18T01:39:00.064Z,93092.00
2023-05-18T01:40:00.096Z,93094.00
2023-05-18T01:41:00.169Z,93092.00
2023-05-18T01:42:00.169Z,93092.00
2023-05-18T01:43:00.168Z,93092.00
2023-05-18T01:44:00.204Z,93088.00
2023-05-18T01:45:00.230Z,93090.00
2023-05-18T01:46:00.289Z,93086.00
2023-05-18T01:47:00.288Z,93088.00
2023-05-18T01:48:00.334Z,93082.00
2023-05-18T01:49:00.308Z,93086.00
2023-05-18T01:50:00.360Z,93082.00
2023-05-18T01:51:00.384Z,93082.00
2023-05-18T01:52:00.393Z,93084.00
2023-05-18T01:53:00.414Z,93082.00
2023-05-18T01:54:00.433Z,93077.00
2023-05-18T01:55:00.468Z,93077.00
2023-05-18T01:56:00.474Z,93077.00
2023-05-18T01:57:01.232Z,93077.00
2023-05-18T01:58:00.516Z,93077.00
2023-05-18T01:59:00.527Z,93077.00
2023-05-18T02:00:00.608Z,93077.00
2023-05-18T02:01:00.570Z,93075.00
2023-05-18T02:02:00.730Z,93075.00
2023-05-18T02:03:00.747Z,93075.00
2023-05-18T02:04:00.773Z,93073.00
2023-05-18T02:05:00.673Z,93075.00
2023-05-18T02:06:00.693Z,93077.00
2023-05-18T02:07:00.709Z,93077.00
2023-05-18T02:08:00.739Z,93075.00
2023-05-18T02:09:00.773Z,93075.00
2023-05-18T02:10:00.811Z,93073.00
2023-05-18T02:11:00.816Z,93071.00
2023-05-18T02:12:00.852Z,93071.00
2023-05-18T02:13:00.867Z,93071.00
2023-05-18T02:14:00.900Z,93069.00
2023-05-18T02:15:00.943Z,93067.00
2023-05-18T02:16:00.978Z,93069.00
2023-05-18T02:17:01.013Z,93065.00
2023-05-18T02:18:01.048Z,93065.00
2023-05-18T02:19:34.609Z,93065.00
2023-05-18T02:20:34.620Z,93061.00
2023-05-18T02:21:34.638Z,93063.00
2023-05-18T02:22:34.628Z,93061.00
2023-05-18T02:23:34.685Z,93063.00
2023-05-18T02:24:34.656Z,93063.00
2023-05-18T02:25:34.623Z,93059.00
2023-05-18T02:26:34.627Z,93063.00
2023-05-18T02:27:34.643Z,93063.00
2023-05-18T02:28:34.639Z,93065.00
2023-05-18T02:29:34.650Z,93063.00
2023-05-18T02:30:34.653Z,93061.00
2023-05-18T02:31:34.671Z,93061.00
2023-05-18T02:32:34.701Z,93061.00
2023-05-18T02:33:34.676Z,93061.00
2023-05-18T02:34:34.678Z,93063.00
2023-05-18T02:35:34.674Z,93061.00
2023-05-18T02:36:34.673Z,93059.00
2023-05-18T02:37:34.690Z,93059.00
2023-05-18T02:38:34.753Z,93059.00
2023-05-18T02:39:34.705Z,93059.00
2023-05-18T02:40:34.705Z,93057.00
2023-05-18T02:41:34.695Z,93057.00
2023-05-18T02:42:34.703Z,93059.00
2023-05-18T02:43:34.715Z,93057.00
2023-05-18T02:44:34.723Z,93059.00
2023-05-18T02:45:34.768Z,93059.00
2023-05-18T02:46:34.733Z,93057.00
2023-05-18T02:47:34.743Z,93055.00
2023-05-18T02:48:34.765Z,93055.00
2023-05-18T02:49:34.748Z,93053.00
2023-05-18T02:50:34.749Z,93049.00
2023-05-18T02:51:34.759Z,93049.00
2023-05-18T02:52:34.786Z,93051.00
2023-05-18T02:53:34.767Z,93053.00
2023-05-18T02:54:34.777Z,93049.00
2023-05-18T02:55:34.858Z,93053.00
2023-05-18T02:56:34.800Z,93051.00
2023-05-18T02:57:34.818Z,93051.00
2023-05-18T02:58:34.846Z,93051.00
2023-05-18T02:59:34.845Z,93053.00
2023-05-18T03:00:34.890Z,93053.00
2023-05-18T03:01:34.934Z,93055.00
2023-05-18T03:02:34.943Z,93055.00
2023-05-18T03:03:34.918Z,93055.00
2023-05-18T03:04:34.918Z,93055.00
2023-05-18T03:05:34.905Z,93055.00
2023-05-18T03:06:34.927Z,93057.00
2023-05-18T03:07:34.940Z,93059.00
2023-05-18T03:08:34.941Z,93057.00
2023-05-18T03:09:34.960Z,93055.00
2023-05-18T03:10:34.977Z,93053.00
2023-05-18T03:11:34.980Z,93055.00
2023-05-18T03:12:34.992Z,93055.00
2023-05-18T03:13:35.001Z,93053.00
2023-05-18T03:14:35.011Z,93059.00
2023-05-18T03:15:35.016Z,93055.00
2023-05-18T03:16:35.050Z,93055.00
2023-05-18T03:17:35.071Z,93053.00
2023-05-18T03:18:35.163Z,93055.00
2023-05-18T03:19:35.120Z,93053.00
2023-05-18T03:20:35.075Z,93055.00
2023-05-18T03:21:35.067Z,93053.00
2023-05-18T03:22:35.081Z,93055.00
2023-05-18T03:23:35.093Z,93055.00
2023-05-18T03:24:35.087Z,93053.00
2023-05-18T03:25:35.098Z,93055.00
2023-05-18T03:26:35.131Z,93053.00
2023-05-18T03:27:35.128Z,93055.00
2023-05-18T03:28:35.139Z,93055.00
2023-05-18T03:29:35.154Z,93057.00
2023-05-18T03:30:35.175Z,93059.00
2023-05-18T03:31:35.199Z,93059.00
2023-05-18T03:32:35.217Z,93053.00
2023-05-18T03:33:35.215Z,93055.00
2023-05-18T03:34:35.245Z,93055.00
2023-05-18T03:35:35.240Z,93053.00
2023-05-18T03:36:35.260Z,93059.00
2023-05-18T03:37:35.279Z,93055.00
2023-05-18T03:38:35.354Z,93053.00
2023-05-18T03:39:35.302Z,93053.00
2023-05-18T03:40:35.300Z,93057.00
2023-05-18T03:41:35.338Z,93053.00
2023-05-18T03:42:35.363Z,93057.00
2023-05-18T03:43:35.372Z,93057.00
2023-05-18T03:44:35.394Z,93057.00
2023-05-18T03:45:35.403Z,93063.00
2023-05-18T03:46:35.478Z,93061.00
2023-05-18T03:47:35.456Z,93063.00
2023-05-18T03:48:35.414Z,93065.00
2023-05-18T03:49:35.450Z,93063.00
2023-05-18T03:50:35.447Z,93063.00
2023-05-18T03:51:35.458Z,93065.00
2023-05-18T03:52:35.472Z,93063.00
2023-05-18T03:53:35.475Z,93059.00
2023-05-18T03:54:35.490Z,93061.00
2023-05-18T03:55:35.512Z,93061.00
2023-05-18T03:56:35.541Z,93061.00
2023-05-18T03:57:35.546Z,93063.00
2023-05-18T03:58:35.555Z,93061.00
2023-05-18T03:59:35.588Z,93061.00
2023-05-18T04:00:35.590Z,93059.00
2023-05-18T04:01:35.626Z,93057.00
2023-05-18T04:02:35.703Z,93057.00
2023-05-18T04:03:35.730Z,93059.00
2023-05-18T04:04:35.635Z,93059.00
2023-05-18T04:05:35.657Z,93059.00
2023-05-18T04:06:35.670Z,93059.00
2023-05-18T04:07:35.684Z,93061.00
2023-05-18T04:08:35.693Z,93063.00
2023-05-18T04:09:35.724Z,93061.00
2023-05-18T04:10:35.720Z,93063.00
2023-05-18T04:11:35.731Z,93065.00
2023-05-18T04:12:35.767Z,93067.00
2023-05-18T04:13:35.766Z,93069.00
2023-05-18T04:14:35.783Z,93067.00
2023-05-18T04:15:35.804Z,93069.00
2023-05-18T04:16:35.837Z,93067.00
2023-05-18T04:17:35.924Z,93071.00
2023-05-18T04:18:35.886Z,93071.00
2023-05-18T04:19:35.909Z,93071.00
2023-05-18T04:20:35.875Z,93069.00
2023-05-18T04:21:35.899Z,93071.00
2023-05-18T04:22:35.905Z,93069.00
2023-05-18T04:23:35.913Z,93067.00
2023-05-18T04:24:35.927Z,93067.00
2023-05-18T04:25:35.948Z,93067.00
2023-05-18T04:26:35.964Z,93067.00
2023-05-18T04:27:35.977Z,93067.00
2023-05-18T04:28:35.999Z,93069.00
2023-05-18T04:29:36.013Z,93065.00
2023-05-18T04:30:36.025Z,93065.00
2023-05-18T04:31:36.050Z,93067.00
2023-05-18T04:32:36.108Z,93065.00
2023-05-18T04:33:36.050Z,93065.00
2023-05-18T04:34:36.067Z,93067.00
2023-05-18T04:35:36.130Z,93065.00
2023-05-18T04:36:36.126Z,93067.00
2023-05-18T04:37:36.096Z,93067.00
2023-05-18T04:38:36.102Z,93065.00
2023-05-18T04:39:36.100Z,93067.00
2023-05-18T04:40:36.104Z,93067.00
2023-05-18T04:41:36.108Z,93065.00
2023-05-18T04:42:36.127Z,93063.00
2023-05-18T04:43:36.135Z,93067.00
2023-05-18T04:44:36.148Z,93069.00
2023-05-18T04:45:36.259Z,93067.00
2023-05-18T04:46:36.151Z,93065.00
2023-05-18T04:47:36.200Z,93065.00
2023-05-18T04:48:36.184Z,93067.00
2023-05-18T04:49:36.218Z,93063.00
2023-05-18T04:50:36.227Z,93063.00
2023-05-18T04:51:36.251Z,93065.00
2023-05-18T04:52:36.279Z,93067.00
2023-05-18T04:53:36.307Z,93063.00
2023-05-18T04:54:36.330Z,93065.00
2023-05-18T04:55:36.341Z,93067.00
2023-05-18T04:56:36.372Z,93067.00
2023-05-18T04:57:36.406Z,93071.00
2023-05-18T04:58:36.436Z,93073.00
2023-05-18T04:59:36.453Z,93071.00
2023-05-18T05:00:36.465Z,93069.00
2023-05-18T05:01:36.530Z,93071.00
2023-05-18T05:02:36.661Z,93073.00
2023-05-18T05:03:36.672Z,93073.00
2023-05-18T05:04:36.586Z,93073.00
2023-05-18T05:05:36.609Z,93073.00
2023-05-18T05:06:36.681Z,93073.00
2023-05-18T05:07:36.671Z,93077.00
2023-05-18T05:08:36.687Z,93077.00
2023-05-18T05:09:36.718Z,93075.00
2023-05-18T05:10:36.742Z,93073.00
2023-05-18T05:11:36.761Z,93077.00
2023-05-18T05:12:36.788Z,93075.00
2023-05-18T05:13:36.814Z,93073.00
2023-05-18T05:14:36.834Z,93075.00
2023-05-18T05:15:36.908Z,93075.00
2023-05-18T05:16:36.877Z,93077.00
2023-05-18T05:17:36.926Z,93073.00
2023-05-18T05:18:36.963Z,93075.00
2023-05-18T05:19:36.944Z,93079.00
2023-05-18T05:20:36.960Z,93075.00
2023-05-18T05:21:36.985Z,93075.00
2023-05-18T05:22:37.054Z,93075.00
2023-05-18T05:23:37.036Z,93077.00
2023-05-18T05:24:37.058Z,93075.00
2023-05-18T05:25:37.102Z,93075.00
2023-05-18T05:26:37.112Z,93077.00
2023-05-18T05:27:37.824Z,93077.00
2023-05-18T05:28:37.149Z,93077.00
2023-05-18T05:29:37.181Z,93073.00
2023-05-18T05:30:37.194Z,93077.00
2023-05-18T05:31:37.242Z,93075.00
2023-05-18T05:32:37.340Z,93077.00
2023-05-18T05:33:37.255Z,93073.00
2023-05-18T05:34:37.283Z,93075.00
2023-05-18T05:35:37.663Z,93073.00
2023-05-18T05:36:37.321Z,93073.00
2023-05-18T05:37:37.371Z,93073.00
2023-05-18T05:38:37.379Z,93069.00
2023-05-18T05:39:37.400Z,93071.00
2023-05-18T05:40:37.421Z,93075.00
2023-05-18T05:41:37.450Z,93073.00
2023-05-18T05:42:37.486Z,93069.00
2023-05-18T05:43:37.525Z,93073.00
2023-05-18T05:44:37.550Z,93075.00
2023-05-18T05:45:37.553Z,93073.00
2023-05-18T05:46:37.585Z,93073.00
2023-05-18T05:47:37.622Z,93069.00
2023-05-18T05:48:37.667Z,93077.00
2023-05-18T05:49:37.625Z,93075.00
2023-05-18T05:50:37.660Z,93075.00
2023-05-18T05:51:37.672Z,93075.00
2023-05-18T05:52:37.685Z,93075.00
2023-05-18T05:53:37.680Z,93077.00
2023-05-18T05:54:37.707Z,93079.00
2023-05-18T05:55:37.720Z,93079.00
2023-05-18T05:56:37.751Z,93077.00
2023-05-18T05:57:37.759Z,93081.00
2023-05-18T05:58:37.782Z,93081.00
2023-05-18T05:59:37.812Z,93079.00
2023-05-18T06:00:37.817Z,93081.00
2023-05-18T06:01:37.891Z,93082.00
2023-05-18T06:02:38.136Z,93079.00
2023-05-18T06:03:39.058Z,93081.00
2023-05-18T06:04:37.903Z,93079.00
2023-05-18T06:05:37.918Z,93079.00
2023-05-18T06:06:37.941Z,93079.00
2023-05-18T06:07:37.946Z,93077.00
2023-05-18T06:08:37.975Z,93079.00
2023-05-18T06:09:37.993Z,93081.00
2023-05-18T06:10:38.019Z,93079.00
2023-05-18T06:11:38.029Z,93079.00
2023-05-18T06:12:38.117Z,93081.00
2023-05-18T06:13:38.068Z,93081.00
2023-05-18T06:14:38.099Z,93084.00
2023-05-18T06:15:38.125Z,93086.00
2023-05-18T06:16:38.172Z,93086.00
2023-05-18T06:17:38.223Z,93086.00
2023-05-18T06:18:38.180Z,93086.00
2023-05-18T06:19:38.175Z,93086.00
2023-05-18T06:20:38.221Z,93086.00
2023-05-18T06:21:38.224Z,93088.00
2023-05-18T06:22:38.249Z,93088.00
2023-05-18T06:23:40.992Z,93088.00
2023-05-18T06:24:38.268Z,93088.00
2023-05-18T06:25:38.292Z,93086.00
2023-05-18T06:26:38.321Z,93088.00
2023-05-18T06:27:38.306Z,93086.00
2023-05-18T06:28:38.391Z,93086.00
2023-05-18T06:29:38.339Z,93084.00
2023-05-18T06:30:38.359Z,93086.00
2023-05-18T06:31:38.480Z,93086.00
2023-05-18T06:32:38.405Z,93088.00
2023-05-18T06:33:38.414Z,93088.00
2023-05-18T06:34:38.393Z,93086.00
2023-05-18T06:35:38.411Z,93088.00
2023-05-18T06:36:38.425Z,93088.00
2023-05-18T06:37:38.444Z,93086.00
2023-05-18T06:38:38.468Z,93086.00
2023-05-18T06:39:38.472Z,93088.00
2023-05-18T06:40:38.487Z,93090.00
2023-05-18T06:41:38.496Z,93088.00
2023-05-18T06:42:38.511Z,93090.00
2023-05-18T06:43:38.507Z,93088.00
2023-05-18T06:44:38.549Z,93086.00
2023-05-18T06:45:38.793Z,93086.00
2023-05-18T06:46:38.643Z,93082.00
2023-05-18T06:47:38.628Z,93084.00
2023-05-18T06:48:38.596Z,93084.00
2023-05-18T06:49:38.623Z,93082.00
2023-05-18T06:50:38.613Z,93084.00
2023-05-18T06:51:38.630Z,93084.00
2023-05-18T06:52:38.637Z,93084.00
2023-05-18T06:53:38.654Z,93084.00
2023-05-18T06:54:38.739Z,93082.00
2023-05-18T06:55:38.681Z,93082.00
2023-05-18T06:56:38.685Z,93084.00
2023-05-18T06:57:38.715Z,93082.00
2023-05-18T06:58:38.740Z,93084.00
2023-05-18T06:59:38.734Z,93084.00
2023-05-18T07:00:38.982Z,93082.00
2023-05-18T07:01:38.815Z,93082.00
2023-05-18T07:02:38.819Z,93082.00
2023-05-18T07:03:38.845Z,93081.00
2023-05-18T07:04:38.777Z,93084.00
2023-05-18T07:05:39.830Z,93084.00
2023-05-18T07:06:38.798Z,93082.00
2023-05-18T07:07:38.817Z,93084.00
2023-05-18T07:08:38.824Z,93086.00
2023-05-18T07:09:38.831Z,93084.00
2023-05-18T07:10:38.826Z,93086.00
2023-05-18T07:11:38.850Z,93088.00
2023-05-18T07:12:38.856Z,93086.00
2023-05-18T07:13:38.871Z,93088.00
2023-05-18T07:14:38.874Z,93084.00
2023-05-18T07:15:39.393Z,93084.00
2023-05-18T07:16:39.005Z,93086.00
2023-05-18T07:17:38.939Z,93084.00
2023-05-18T07:18:38.967Z,93088.00
2023-05-18T07:19:38.913Z,93086.00
2023-05-18T07:20:38.935Z,93090.00
2023-05-18T07:21:38.959Z,93084.00
2023-05-18T07:22:38.958Z,93088.00
2023-05-18T07:23:38.972Z,93088.00
2023-05-18T07:24:38.984Z,93084.00
2023-05-18T07:25:39.007Z,93086.00
2023-05-18T07:26:38.994Z,93088.00
2023-05-18T07:27:38.997Z,93088.00
2023-05-18T07:28:39.016Z,93086.00
2023-05-18T07:29:39.018Z,93092.00
2023-05-18T07:30:39.374Z,93090.00
2023-05-18T07:31:39.236Z,93088.00
2023-05-18T07:32:39.107Z,93088.00
2023-05-18T07:33:41.085Z,93088.00
2023-05-18T07:34:39.037Z,93088.00
2023-05-18T07:35:39.055Z,93088.00
2023-05-18T07:36:39.069Z,93088.00
2023-05-18T07:37:39.073Z,93090.00
2023-05-18T07:38:39.109Z,93086.00
2023-05-18T07:39:39.089Z,93086.00
2023-05-18T07:40:39.100Z,93084.00
2023-05-18T07:41:39.112Z,93084.00
2023-05-18T07:42:39.128Z,93082.00
2023-05-18T07:43:39.131Z,93084.00
2023-05-18T07:44:39.355Z,93082.00
2023-05-18T07:45:39.156Z,93082.00
2023-05-18T07:46:39.160Z,93082.00
2023-05-18T07:47:39.207Z,93082.00
2023-05-18T07:48:40.756Z,93082.00
2023-05-18T07:49:39.187Z,93082.00
2023-05-18T07:50:39.208Z,93082.00
2023-05-18T07:51:39.199Z,93082.00
2023-05-18T07:52:39.214Z,93082.00
2023-05-18T07:53:39.216Z,93082.00
2023-05-18T07:54:39.223Z,93082.00
2023-05-18T07:55:39.247Z,93081.00
2023-05-18T07:56:39.256Z,93084.00
2023-05-18T07:57:39.262Z,93084.00
2023-05-18T07:58:39.269Z,93086.00
2023-05-18T07:59:39.275Z,93086.00
2023-05-18T08:00:39.289Z,93084.00
2023-05-18T08:01:39.312Z,93086.00
2023-05-18T08:02:39.421Z,93082.00
2023-05-18T08:03:39.401Z,93084.00
2023-05-18T08:04:39.330Z,93081.00
2023-05-18T08:05:39.358Z,93082.00
2023-05-18T08:06:39.360Z,93079.00
2023-05-18T08:07:39.405Z,93084.00
2023-05-18T08:08:39.400Z,93079.00
2023-05-18T08:09:39.407Z,93079.00
2023-05-18T08:10:39.423Z,93079.00
2023-05-18T08:11:39.461Z,93081.00
2023-05-18T08:12:39.459Z,93079.00
2023-05-18T08:13:39.470Z,93081.00
2023-05-18T08:14:39.481Z,93082.00
2023-05-18T08:15:39.501Z,93082.00
2023-05-18T08:16:39.538Z,93082.00
2023-05-18T08:17:39.545Z,93082.00
2023-05-18T08:18:39.615Z,93084.00
2023-05-18T08:19:41.746Z,93084.00
2023-05-18T08:20:39.579Z,93084.00
2023-05-18T08:21:39.592Z,93081.00
2023-05-18T08:22:39.619Z,93082.00
2023-05-18T08:23:39.629Z,93082.00
2023-05-18T08:24:39.653Z,93084.00
2023-05-18T08:25:39.674Z,93088.00
2023-05-18T08:26:39.699Z,93086.00
2023-05-18T08:27:39.703Z,93088.00
2023-05-18T08:28:39.735Z,93088.00
2023-05-18T08:29:39.755Z,93088.00
2023-05-18T08:30:39.790Z,93092.00
2023-05-18T08:31:39.879Z,93094.00
2023-05-18T08:32:39.849Z,93092.00
2023-05-18T08:33:39.857Z,93094.00
2023-05-18T08:34:39.878Z,93094.00
2023-05-18T08:35:39.897Z,93090.00
2023-05-18T08:36:39.901Z,93090.00
2023-05-18T08:37:40.033Z,93088.00
2023-05-18T08:38:39.943Z,93088.00
2023-05-18T08:39:39.967Z,93086.00
2023-05-18T08:40:40.016Z,93088.00
2023-05-18T08:41:40.049Z,93088.00
2023-05-18T08:42:49.452Z,93086.00
2023-05-18T08:43:41.100Z,93090.00
2023-05-18T08:44:40.114Z,93088.00
2023-05-18T08:45:40.115Z,93088.00
2023-05-18T08:46:40.118Z,93090.00
2023-05-18T08:47:40.248Z,93092.00
2023-05-18T08:48:40.208Z,93090.00
2023-05-18T08:49:40.155Z,93096.00
2023-05-18T08:50:40.178Z,93094.00
2023-05-18T08:51:40.390Z,93108.00
2023-05-18T08:52:40.193Z,93104.00
2023-05-18T08:53:40.200Z,93106.00
2023-05-18T08:54:40.216Z,93094.00
2023-05-18T08:55:40.237Z,93094.00
2023-05-18T08:56:40.229Z,93090.00
2023-05-18T08:57:40.267Z,93088.00
2023-05-18T08:58:40.262Z,93086.00
2023-05-18T08:59:40.264Z,93086.00
2023-05-18T09:00:40.287Z,93088.00
2023-05-18T09:01:40.285Z,93086.00
2023-05-18T09:02:40.339Z,93084.00
2023-05-18T09:03:40.291Z,93084.00
2023-05-18T09:04:40.312Z,93082.00
2023-05-18T09:05:40.316Z,93081.00
2023-05-18T09:06:40.333Z,93081.00
2023-05-18T09:07:40.328Z,93079.00
2023-05-18T09:08:40.369Z,93079.00
2023-05-18T09:09:40.355Z,93075.00
2023-05-18T09:10:40.377Z,93077.00
2023-05-18T09:11:40.385Z,93073.00
2023-05-18T09:12:40.401Z,93075.00
2023-05-18T09:13:40.410Z,93075.00
2023-05-18T09:14:40.420Z,93073.00
2023-05-18T09:15:40.453Z,93071.00
2023-05-18T09:16:40.430Z,93073.00
2023-05-18T09:17:40.470Z,93073.00
2023-05-18T09:18:41.442Z,93073.00
2023-05-18T09:19:40.470Z,93073.00
2023-05-18T09:20:40.473Z,93075.00
2023-05-18T09:21:40.480Z,93077.00
2023-05-18T09:22:40.496Z,93077.00
2023-05-18T09:23:40.506Z,93077.00
2023-05-18T09:24:40.505Z,93077.00
2023-05-18T09:25:40.517Z,93075.00
2023-05-18T09:26:40.530Z,93075.00
2023-05-18T09:27:40.529Z,93075.00
2023-05-18T09:28:40.547Z,93077.00
2023-05-18T09:29:40.652Z,93075.00
2023-05-18T09:30:40.575Z,93077.00
2023-05-18T09:31:40.593Z,93079.00
2023-05-18T09:32:40.620Z,93079.00
2023-05-18T09:33:40.769Z,93073.00
2023-05-18T09:34:40.636Z,93073.00
2023-05-18T09:35:40.680Z,93075.00
2023-05-18T09:36:40.696Z,93071.00
2023-05-18T09:37:40.721Z,93073.00
2023-05-18T09:38:40.736Z,93069.00
2023-05-18T09:39:40.757Z,93073.00
2023-05-18T09:40:40.784Z,93073.00
2023-05-18T09:41:40.813Z,93069.00
2023-05-18T09:42:40.869Z,93069.00
2023-05-18T09:43:40.886Z,93069.00
2023-05-18T09:44:40.905Z,93069.00
2023-05-18T09:45:40.963Z,93073.00
2023-05-18T09:46:41.076Z,93067.00
2023-05-18T09:47:41.123Z,93071.00
2023-05-18T09:48:41.099Z,93071.00
2023-05-18T09:49:41.163Z,93069.00
2023-05-18T09:50:41.183Z,93069.00
2023-05-18T09:51:41.194Z,93069.00
2023-05-18T09:52:41.209Z,93069.00
2023-05-18T09:53:41.242Z,93069.00
2023-05-18T09:54:41.243Z,93071.00
2023-05-18T09:55:41.262Z,93069.00
2023-05-18T09:56:41.393Z,93067.00
2023-05-18T09:57:41.301Z,93069.00
2023-05-18T09:58:41.315Z,93065.00
2023-05-18T09:59:41.336Z,93065.00
2023-05-18T10:00:41.398Z,93065.00
2023-05-18T10:01:41.386Z,93065.00
2023-05-18T10:02:41.490Z,93067.00
2023-05-18T10:03:41.422Z,93065.00
2023-05-18T10:04:41.586Z,93063.00
2023-05-18T10:05:41.474Z,93065.00
2023-05-18T10:06:41.499Z,93065.00
2023-05-18T10:07:41.516Z,93065.00
2023-05-18T10:08:41.544Z,93063.00
2023-05-18T10:09:41.608Z,93063.00
2023-05-18T10:10:41.597Z,93065.00
2023-05-18T10:11:41.605Z,93063.00
2023-05-18T10:12:41.644Z,93061.00
2023-05-18T10:13:41.659Z,93057.00
2023-05-18T10:14:41.675Z,93057.00
2023-05-18T10:15:41.705Z,93057.00
2023-05-18T10:16:41.766Z,93057.00
2023-05-18T10:17:41.777Z,93055.00
2023-05-18T10:18:41.836Z,93055.00
2023-05-18T10:19:41.759Z,93055.00
2023-05-18T10:20:41.777Z,93055.00
2023-05-18T10:21:41.786Z,93053.00
2023-05-18T10:22:41.825Z,93053.00
2023-05-18T10:23:41.831Z,93053.00
2023-05-18T10:24:41.849Z,93051.00
2023-05-18T10:25:41.879Z,93053.00
2023-05-18T10:26:41.892Z,93053.00
2023-05-18T10:27:41.908Z,93053.00
2023-05-18T10:28:41.941Z,93051.00
2023-05-18T10:29:41.950Z,93051.00
2023-05-18T10:30:41.994Z,93051.00
2023-05-18T10:31:42.004Z,93055.00
2023-05-18T10:32:42.029Z,93051.00
2023-05-18T10:33:42.076Z,93051.00
2023-05-18T10:34:42.050Z,93051.00
2023-05-18T10:35:42.079Z,93057.00
2023-05-18T10:36:42.079Z,93055.00
2023-05-18T10:37:42.093Z,93055.00
2023-05-18T10:38:42.122Z,93055.00
2023-05-18T10:39:42.130Z,93059.00
2023-05-18T10:40:42.154Z,93055.00
2023-05-18T10:41:42.165Z,93053.00
2023-05-18T10:42:42.189Z,93057.00
2023-05-18T10:43:42.210Z,93057.00
2023-05-18T10:44:42.234Z,93059.00
2023-05-18T10:45:42.244Z,93057.00
2023-05-18T10:46:42.297Z,93055.00
2023-05-18T10:47:42.426Z,93057.00
2023-05-18T10:48:42.262Z,93055.00
2023-05-18T10:49:42.284Z,93055.00
2023-05-18T10:50:42.308Z,93053.00
2023-05-18T10:51:42.313Z,93053.00
2023-05-18T10:52:42.363Z,93051.00
2023-05-18T10:53:42.353Z,93055.00
2023-05-18T10:54:42.365Z,93055.00
2023-05-18T10:55:42.384Z,93055.00
2023-05-18T10:56:42.392Z,93053.00
2023-05-18T10:57:42.429Z,93051.00
2023-05-18T10:58:42.463Z,93051.00
2023-05-18T10:59:43.011Z,93051.00
2023-05-18T11:00:42.512Z,93047.00
2023-05-18T11:01:42.600Z,93047.00
2023-05-18T11:02:42.809Z,93047.00
2023-05-18T11:03:42.632Z,93045.00
2023-05-18T11:04:42.812Z,93041.00
2023-05-18T11:05:42.741Z,93041.00
2023-05-18T11:06:42.772Z,93045.00
2023-05-18T11:07:42.811Z,93043.00
2023-05-18T11:08:42.829Z,93039.00
2023-05-18T11:09:42.844Z,93041.00
2023-05-18T11:10:42.900Z,93043.00
2023-05-18T11:11:42.912Z,93043.00
2023-05-18T11:12:42.925Z,93043.00
2023-05-18T11:13:42.963Z,93043.00
2023-05-18T11:14:42.996Z,93043.00
2023-05-18T11:15:43.062Z,93043.00
2023-05-18T11:16:43.071Z,93041.00
2023-05-18T11:17:43.152Z,93041.00
2023-05-18T11:18:43.141Z,93041.00
2023-05-18T11:19:43.160Z,93041.00
2023-05-18T11:20:43.221Z,93039.00
2023-05-18T11:21:43.241Z,93037.00
2023-05-18T11:22:43.284Z,93039.00
2023-05-18T11:23:43.287Z,93035.00
2023-05-18T11:24:43.317Z,93039.00
2023-05-18T11:25:43.358Z,93037.00
2023-05-18T11:26:43.392Z,93035.00
2023-05-18T11:27:43.420Z,93037.00
2023-05-18T11:28:43.448Z,93041.00
2023-05-18T11:29:43.493Z,93039.00
2023-05-18T11:30:43.525Z,93037.00
2023-05-18T11:31:43.620Z,93037.00
2023-05-18T11:32:43.721Z,93037.00
2023-05-18T11:33:43.704Z,93037.00
2023-05-18T11:34:43.739Z,93039.00
2023-05-18T11:35:43.805Z,93035.00
2023-05-18T11:36:43.854Z,93039.00
2023-05-18T11:37:43.920Z,93035.00
2023-05-18T11:38:43.965Z,93039.00
2023-05-18T11:39:55.521Z,93037.00
2023-05-18T11:40:45.075Z,93039.00
2023-05-18T11:41:44.077Z,93037.00
2023-05-18T11:42:44.082Z,93035.00
2023-05-18T11:43:44.097Z,93035.00
2023-05-18T11:44:44.104Z,93035.00
2023-05-18T11:45:44.102Z,93039.00